sensor_id;sensor_type;location;lat;lon;timestamp;pressure;altitude;pressure_sealevel;temperature;humidity
16793;BME280;8513;42.662;23.350;2023-03-04T00:02:16;94933.94;;;7.24;68.02
16793;BME280;8513;42.662;23.350;2023-03-04T00:04:41;94939.44;;;7.21;67.78
16793;BME280;8513;42.662;23.350;2023-03-04T00:07:07;94940.50;;;7.18;68.29
16793;BME280;8513;42.662;23.350;2023-03-04T00:09:32;94933.84;;;7.35;67.76
16793;BME280;8513;42.662;23.350;2023-03-04T00:11:58;94934.78;;;7.34;67.51
16793;BME280;8513;42.662;23.350;2023-03-04T00:14:23;94928.72;;;7.34;68.01
16793;BME280;8513;42.662;23.350;2023-03-04T00:16:49;94924.31;;;7.24;68.21
16793;BME280;8513;42.662;23.350;2023-03-04T00:19:14;94923.19;;;7.17;68.69
16793;BME280;8513;42.662;23.350;2023-03-04T00:21:40;94923.06;;;7.28;68.34
16793;BME280;8513;42.662;23.350;2023-03-04T00:24:05;94910.22;;;7.16;68.06
16793;BME280;8513;42.662;23.350;2023-03-04T00:26:31;94920.97;;;7.13;68.70
16793;BME280;8513;42.662;23.350;2023-03-04T00:28:56;94922.59;;;7.04;68.99
16793;BME280;8513;42.662;23.350;2023-03-04T00:31:22;94923.53;;;7.03;68.78
16793;BME280;8513;42.662;23.350;2023-03-04T00:33:47;94922.72;;;7.02;68.65
16793;BME280;8513;42.662;23.350;2023-03-04T00:36:13;94920.03;;;7.14;68.55
16793;BME280;8513;42.662;23.350;2023-03-04T00:38:38;94915.06;;;7.20;67.96
16793;BME280;8513;42.662;23.350;2023-03-04T00:41:04;94910.66;;;7.21;68.21
16793;BME280;8513;42.662;23.350;2023-03-04T00:43:29;94919.75;;;7.26;67.88
16793;BME280;8513;42.662;23.350;2023-03-04T00:45:56;94917.41;;;7.23;68.21
16793;BME280;8513;42.662;23.350;2023-03-04T00:48:21;94926.41;;;7.00;68.74
16793;BME280;8513;42.662;23.350;2023-03-04T00:50:47;94919.00;;;7.05;68.28
16793;BME280;8513;42.662;23.350;2023-03-04T00:53:13;94921.78;;;7.03;68.23
16793;BME280;8513;42.662;23.350;2023-03-04T00:55:38;94912.44;;;7.20;68.00
16793;BME280;8513;42.662;23.350;2023-03-04T00:58:04;94913.44;;;6.89;68.98
16793;BME280;8513;42.662;23.350;2023-03-04T01:00:29;94913.22;;;7.01;68.78
16793;BME280;8513;42.662;23.350;2023-03-04T01:02:55;94914.09;;;7.12;68.15
16793;BME280;8513;42.662;23.350;2023-03-04T01:05:20;94919.59;;;7.09;68.29
16793;BME280;8513;42.662;23.350;2023-03-04T01:07:46;94918.22;;;7.24;68.18
16793;BME280;8513;42.662;23.350;2023-03-04T01:10:13;94913.28;;;7.21;67.63
16793;BME280;8513;42.662;23.350;2023-03-04T01:12:39;94908.69;;;6.73;69.16
16793;BME280;8513;42.662;23.350;2023-03-04T01:15:07;94908.22;;;6.89;69.26
16793;BME280;8513;42.662;23.350;2023-03-04T01:17:33;94910.88;;;6.98;68.73
16793;BME280;8513;42.662;23.350;2023-03-04T01:19:58;94900.41;;;6.98;68.56
16793;BME280;8513;42.662;23.350;2023-03-04T01:22:24;94899.19;;;7.02;68.49
16793;BME280;8513;42.662;23.350;2023-03-04T01:24:49;94896.00;;;6.99;68.56
16793;BME280;8513;42.662;23.350;2023-03-04T01:27:15;94899.44;;;6.99;68.61
16793;BME280;8513;42.662;23.350;2023-03-04T01:29:40;94898.25;;;7.03;68.48
16793;BME280;8513;42.662;23.350;2023-03-04T01:32:06;94893.34;;;6.89;68.87
16793;BME280;8513;42.662;23.350;2023-03-04T01:34:31;94891.66;;;7.09;68.39
16793;BME280;8513;42.662;23.350;2023-03-04T01:36:57;94891.75;;;6.98;68.43
16793;BME280;8513;42.662;23.350;2023-03-04T01:39:22;94889.00;;;6.99;68.46
16793;BME280;8513;42.662;23.350;2023-03-04T01:41:48;94875.94;;;6.99;68.21
16793;BME280;8513;42.662;23.350;2023-03-04T01:44:13;94880.22;;;7.10;67.52
16793;BME280;8513;42.662;23.350;2023-03-04T01:46:43;94879.13;;;7.13;67.01
16793;BME280;8513;42.662;23.350;2023-03-04T01:49:13;94879.66;;;7.16;67.05
16793;BME280;8513;42.662;23.350;2023-03-04T01:51:39;94877.91;;;7.17;66.47
16793;BME280;8513;42.662;23.350;2023-03-04T01:54:05;94878.69;;;6.98;67.08
16793;BME280;8513;42.662;23.350;2023-03-04T01:56:37;94876.09;;;7.07;67.03
16793;BME280;8513;42.662;23.350;2023-03-04T02:01:38;94872.31;;;6.50;69.29
16793;BME280;8513;42.662;23.350;2023-03-04T02:04:05;94869.50;;;6.63;68.52
16793;BME280;8513;42.662;23.350;2023-03-04T02:06:32;94869.41;;;6.84;67.84
16793;BME280;8513;42.662;23.350;2023-03-04T02:08:57;94865.03;;;6.94;67.53
16793;BME280;8513;42.662;23.350;2023-03-04T02:11:23;94875.69;;;6.72;68.23
16793;BME280;8513;42.662;23.350;2023-03-04T02:13:49;94874.25;;;6.89;68.09
16793;BME280;8513;42.662;23.350;2023-03-04T02:16:15;94869.16;;;6.97;67.61
16793;BME280;8513;42.662;23.350;2023-03-04T02:18:41;94864.09;;;6.95;67.27
16793;BME280;8513;42.662;23.350;2023-03-04T02:26:32;94868.34;;;6.96;66.74
16793;BME280;8513;42.662;23.350;2023-03-04T02:28:59;94868.09;;;6.99;66.64
16793;BME280;8513;42.662;23.350;2023-03-04T02:31:34;94867.06;;;6.81;66.97
16793;BME280;8513;42.662;23.350;2023-03-04T02:34:04;94867.22;;;6.89;67.12
16793;BME280;8513;42.662;23.350;2023-03-04T02:36:31;94869.81;;;6.79;67.03
16793;BME280;8513;42.662;23.350;2023-03-04T02:39:35;94870.47;;;6.72;67.74
16793;BME280;8513;42.662;23.350;2023-03-04T02:42:03;94854.88;;;6.30;68.75
16793;BME280;8513;42.662;23.350;2023-03-04T02:44:34;94858.53;;;6.48;68.58
16793;BME280;8513;42.662;23.350;2023-03-04T02:47:00;94849.91;;;6.57;68.05
16793;BME280;8513;42.662;23.350;2023-03-04T02:49:28;94854.38;;;6.67;67.81
16793;BME280;8513;42.662;23.350;2023-03-04T02:52:04;94853.13;;;6.71;67.45
16793;BME280;8513;42.662;23.350;2023-03-04T02:54:30;94853.72;;;6.74;67.11
16793;BME280;8513;42.662;23.350;2023-03-04T02:57:00;94857.97;;;6.75;67.34
16793;BME280;8513;42.662;23.350;2023-03-04T02:59:26;94852.28;;;6.60;67.51
16793;BME280;8513;42.662;23.350;2023-03-04T03:01:51;94855.06;;;6.69;67.23
16793;BME280;8513;42.662;23.350;2023-03-04T03:04:17;94855.88;;;6.69;66.99
16793;BME280;8513;42.662;23.350;2023-03-04T03:06:44;94852.31;;;6.70;67.29
16793;BME280;8513;42.662;23.350;2023-03-04T03:09:09;94850.78;;;6.68;66.90
16793;BME280;8513;42.662;23.350;2023-03-04T03:11:35;94856.16;;;6.66;67.56
16793;BME280;8513;42.662;23.350;2023-03-04T03:14:00;94858.88;;;6.65;68.04
16793;BME280;8513;42.662;23.350;2023-03-04T03:16:26;94851.44;;;6.60;67.84
16793;BME280;8513;42.662;23.350;2023-03-04T03:18:51;94861.66;;;6.63;68.13
16793;BME280;8513;42.662;23.350;2023-03-04T03:21:17;94860.13;;;6.60;67.70
16793;BME280;8513;42.662;23.350;2023-03-04T03:23:43;94858.34;;;6.61;67.68
16793;BME280;8513;42.662;23.350;2023-03-04T03:26:08;94859.81;;;6.54;67.58
16793;BME280;8513;42.662;23.350;2023-03-04T03:28:34;94852.78;;;6.54;67.92
16793;BME280;8513;42.662;23.350;2023-03-04T03:30:59;94855.50;;;6.43;68.39
16793;BME280;8513;42.662;23.350;2023-03-04T03:33:25;94856.63;;;6.50;68.04
16793;BME280;8513;42.662;23.350;2023-03-04T03:35:50;94850.81;;;6.47;68.21
16793;BME280;8513;42.662;23.350;2023-03-04T03:38:16;94856.31;;;6.44;68.40
16793;BME280;8513;42.662;23.350;2023-03-04T03:40:41;94841.72;;;6.41;68.13
16793;BME280;8513;42.662;23.350;2023-03-04T03:43:07;94847.50;;;6.35;68.47
16793;BME280;8513;42.662;23.350;2023-03-04T03:45:32;94842.97;;;6.37;68.48
16793;BME280;8513;42.662;23.350;2023-03-04T03:47:58;94838.94;;;6.33;68.57
16793;BME280;8513;42.662;23.350;2023-03-04T03:50:23;94836.97;;;6.25;68.85
16793;BME280;8513;42.662;23.350;2023-03-04T03:52:48;94837.13;;;6.24;68.69
16793;BME280;8513;42.662;23.350;2023-03-04T03:55:14;94837.31;;;5.90;69.96
16793;BME280;8513;42.662;23.350;2023-03-04T03:57:40;94833.56;;;6.04;69.34
16793;BME280;8513;42.662;23.350;2023-03-04T04:00:07;94828.63;;;6.01;68.94
16793;BME280;8513;42.662;23.350;2023-03-04T04:02:32;94827.00;;;6.09;68.90
16793;BME280;8513;42.662;23.350;2023-03-04T04:04:58;94836.88;;;6.06;68.59
16793;BME280;8513;42.662;23.350;2023-03-04T04:07:23;94829.13;;;5.94;69.11
16793;BME280;8513;42.662;23.350;2023-03-04T04:09:49;94829.13;;;5.94;68.91
16793;BME280;8513;42.662;23.350;2023-03-04T04:12:15;94821.75;;;6.00;69.18
16793;BME280;8513;42.662;23.350;2023-03-04T04:14:41;94831.81;;;5.93;68.74
16793;BME280;8513;42.662;23.350;2023-03-04T04:17:07;94831.38;;;5.88;69.31
16793;BME280;8513;42.662;23.350;2023-03-04T04:19:33;94823.19;;;5.92;68.92
16793;BME280;8513;42.662;23.350;2023-03-04T04:21:59;94834.84;;;5.88;69.02
16793;BME280;8513;42.662;23.350;2023-03-04T04:24:24;94828.09;;;5.86;68.96
16793;BME280;8513;42.662;23.350;2023-03-04T04:26:50;94833.44;;;5.84;69.17
16793;BME280;8513;42.662;23.350;2023-03-04T04:29:15;94831.63;;;5.85;69.21
16793;BME280;8513;42.662;23.350;2023-03-04T04:31:41;94827.00;;;5.88;69.04
16793;BME280;8513;42.662;23.350;2023-03-04T04:34:06;94830.56;;;5.87;68.71
16793;BME280;8513;42.662;23.350;2023-03-04T04:36:31;94831.34;;;5.78;69.11
16793;BME280;8513;42.662;23.350;2023-03-04T04:38:57;94826.22;;;5.77;68.88
16793;BME280;8513;42.662;23.350;2023-03-04T04:41:30;94827.91;;;5.78;69.29
16793;BME280;8513;42.662;23.350;2023-03-04T04:43:56;94831.34;;;5.78;69.20
16793;BME280;8513;42.662;23.350;2023-03-04T04:46:22;94830.25;;;5.81;69.41
16793;BME280;8513;42.662;23.350;2023-03-04T04:48:47;94827.00;;;5.67;69.77
16793;BME280;8513;42.662;23.350;2023-03-04T04:51:13;94826.56;;;5.62;70.04
16793;BME280;8513;42.662;23.350;2023-03-04T04:53:39;94832.72;;;5.61;69.93
16793;BME280;8513;42.662;23.350;2023-03-04T04:56:12;94831.16;;;5.70;69.67
16793;BME280;8513;42.662;23.350;2023-03-04T04:58:38;94840.25;;;5.75;69.57
16793;BME280;8513;42.662;23.350;2023-03-04T05:01:04;94832.28;;;5.77;69.09
16793;BME280;8513;42.662;23.350;2023-03-04T05:03:31;94838.34;;;5.78;68.90
16793;BME280;8513;42.662;23.350;2023-03-04T05:05:56;94843.31;;;5.81;69.21
16793;BME280;8513;42.662;23.350;2023-03-04T05:08:22;94839.81;;;5.91;69.16
16793;BME280;8513;42.662;23.350;2023-03-04T05:10:47;94848.25;;;5.84;68.94
16793;BME280;8513;42.662;23.350;2023-03-04T05:13:13;94851.84;;;5.83;68.96
16793;BME280;8513;42.662;23.350;2023-03-04T05:15:38;94862.03;;;5.86;68.83
16793;BME280;8513;42.662;23.350;2023-03-04T05:18:03;94852.97;;;5.90;68.41
16793;BME280;8513;42.662;23.350;2023-03-04T05:20:29;94858.28;;;6.00;68.39
16793;BME280;8513;42.662;23.350;2023-03-04T05:22:54;94860.06;;;5.99;68.54
16793;BME280;8513;42.662;23.350;2023-03-04T05:25:20;94860.53;;;6.04;68.54
16793;BME280;8513;42.662;23.350;2023-03-04T05:27:45;94855.41;;;6.03;68.26
16793;BME280;8513;42.662;23.350;2023-03-04T05:30:11;94870.56;;;6.09;68.36
16793;BME280;8513;42.662;23.350;2023-03-04T05:32:37;94866.72;;;5.92;68.51
16793;BME280;8513;42.662;23.350;2023-03-04T05:35:02;94872.53;;;5.63;69.61
16793;BME280;8513;42.662;23.350;2023-03-04T05:37:28;94862.84;;;5.86;68.96
16793;BME280;8513;42.662;23.350;2023-03-04T05:39:53;94867.91;;;5.99;68.58
16793;BME280;8513;42.662;23.350;2023-03-04T05:42:19;94871.78;;;6.05;68.87
16793;BME280;8513;42.662;23.350;2023-03-04T05:44:44;94872.53;;;6.16;68.28
16793;BME280;8513;42.662;23.350;2023-03-04T05:47:09;94870.63;;;6.18;68.74
16793;BME280;8513;42.662;23.350;2023-03-04T05:49:35;94876.03;;;6.27;68.68
16793;BME280;8513;42.662;23.350;2023-03-04T05:52:00;94876.91;;;6.37;68.13
16793;BME280;8513;42.662;23.350;2023-03-04T05:54:26;94871.81;;;6.35;68.52
16793;BME280;8513;42.662;23.350;2023-03-04T05:56:51;94880.09;;;6.19;68.67
16793;BME280;8513;42.662;23.350;2023-03-04T05:59:17;94878.25;;;6.31;68.05
16793;BME280;8513;42.662;23.350;2023-03-04T06:01:45;94878.13;;;6.33;67.93
16793;BME280;8513;42.662;23.350;2023-03-04T06:04:11;94882.00;;;6.38;68.00
16793;BME280;8513;42.662;23.350;2023-03-04T06:06:37;94883.09;;;6.36;67.99
16793;BME280;8513;42.662;23.350;2023-03-04T06:09:02;94879.38;;;6.38;67.91
16793;BME280;8513;42.662;23.350;2023-03-04T06:11:28;94886.03;;;6.43;67.47
16793;BME280;8513;42.662;23.350;2023-03-04T06:13:53;94882.88;;;6.18;67.90
16793;BME280;8513;42.662;23.350;2023-03-04T06:16:19;94885.22;;;6.00;68.72
16793;BME280;8513;42.662;23.350;2023-03-04T06:18:44;94886.69;;;5.82;70.49
16793;BME280;8513;42.662;23.350;2023-03-04T06:21:10;94891.84;;;6.04;70.03
16793;BME280;8513;42.662;23.350;2023-03-04T06:23:35;94894.69;;;6.01;70.02
16793;BME280;8513;42.662;23.350;2023-03-04T06:26:01;94891.13;;;6.02;69.72
16793;BME280;8513;42.662;23.350;2023-03-04T06:28:27;94889.72;;;6.19;68.75
16793;BME280;8513;42.662;23.350;2023-03-04T06:30:54;94890.69;;;6.39;67.84
16793;BME280;8513;42.662;23.350;2023-03-04T06:33:21;94892.06;;;6.43;67.07
16793;BME280;8513;42.662;23.350;2023-03-04T06:35:47;94898.28;;;6.52;67.31
16793;BME280;8513;42.662;23.350;2023-03-04T06:38:13;94897.91;;;6.56;67.28
16793;BME280;8513;42.662;23.350;2023-03-04T06:40:38;94895.19;;;6.68;66.84
16793;BME280;8513;42.662;23.350;2023-03-04T06:43:04;94896.59;;;6.72;67.27
16793;BME280;8513;42.662;23.350;2023-03-04T06:45:29;94896.75;;;6.49;68.14
16793;BME280;8513;42.662;23.350;2023-03-04T06:47:55;94903.78;;;6.28;69.42
16793;BME280;8513;42.662;23.350;2023-03-04T06:50:20;94909.97;;;6.27;69.49
16793;BME280;8513;42.662;23.350;2023-03-04T06:52:46;94908.91;;;6.29;69.68
16793;BME280;8513;42.662;23.350;2023-03-04T06:55:13;94910.22;;;6.45;69.75
16793;BME280;8513;42.662;23.350;2023-03-04T06:57:38;94903.66;;;6.50;69.05
16793;BME280;8513;42.662;23.350;2023-03-04T07:00:04;94906.78;;;6.75;68.36
16793;BME280;8513;42.662;23.350;2023-03-04T07:02:30;94911.69;;;6.68;68.38
16793;BME280;8513;42.662;23.350;2023-03-04T07:04:56;94913.84;;;6.84;67.90
16793;BME280;8513;42.662;23.350;2023-03-04T07:07:21;94912.34;;;6.91;67.12
16793;BME280;8513;42.662;23.350;2023-03-04T07:09:47;94916.09;;;6.98;66.78
16793;BME280;8513;42.662;23.350;2023-03-04T07:12:13;94914.00;;;6.92;66.58
16793;BME280;8513;42.662;23.350;2023-03-04T07:14:38;94914.88;;;7.02;65.94
16793;BME280;8513;42.662;23.350;2023-03-04T07:17:04;94918.88;;;7.06;66.15
16793;BME280;8513;42.662;23.350;2023-03-04T07:19:29;94918.50;;;7.11;66.24
16793;BME280;8513;42.662;23.350;2023-03-04T07:21:56;94918.50;;;7.11;66.05
16793;BME280;8513;42.662;23.350;2023-03-04T07:24:22;94914.91;;;7.12;65.05
16793;BME280;8513;42.662;23.350;2023-03-04T07:26:47;94922.75;;;7.12;64.41
16793;BME280;8513;42.662;23.350;2023-03-04T07:29:13;94919.03;;;7.15;64.25
16793;BME280;8513;42.662;23.350;2023-03-04T07:31:38;94924.13;;;7.16;63.89
16793;BME280;8513;42.662;23.350;2023-03-04T07:34:06;94925.38;;;7.12;63.76
16793;BME280;8513;42.662;23.350;2023-03-04T07:36:34;94912.34;;;7.22;63.36
16793;BME280;8513;42.662;23.350;2023-03-04T07:38:59;94922.53;;;7.25;63.50
16793;BME280;8513;42.662;23.350;2023-03-04T07:41:26;94914.53;;;7.17;63.59
16793;BME280;8513;42.662;23.350;2023-03-04T07:43:52;94925.41;;;7.22;63.83
16793;BME280;8513;42.662;23.350;2023-03-04T07:46:20;94913.44;;;7.29;63.29
16793;BME280;8513;42.662;23.350;2023-03-04T07:48:45;94920.75;;;7.35;63.14
16793;BME280;8513;42.662;23.350;2023-03-04T07:53:40;94914.56;;;7.36;63.49
16793;BME280;8513;42.662;23.350;2023-03-04T07:56:07;94914.97;;;7.41;62.64
16793;BME280;8513;42.662;23.350;2023-03-04T07:58:33;94916.22;;;7.47;62.58
16793;BME280;8513;42.662;23.350;2023-03-04T08:00:58;94916.53;;;7.63;61.97
16793;BME280;8513;42.662;23.350;2023-03-04T08:03:25;94915.81;;;7.61;61.82
16793;BME280;8513;42.662;23.350;2023-03-04T08:05:52;94912.13;;;7.54;61.54
16793;BME280;8513;42.662;23.350;2023-03-04T08:08:18;94911.44;;;7.62;61.59
16793;BME280;8513;42.662;23.350;2023-03-04T08:10:43;94912.69;;;7.67;61.51
16793;BME280;8513;42.662;23.350;2023-03-04T08:13:09;94912.50;;;7.30;62.45
16793;BME280;8513;42.662;23.350;2023-03-04T08:15:39;94912.09;;;7.64;62.26
16793;BME280;8513;42.662;23.350;2023-03-04T08:18:04;94907.03;;;7.82;61.70
16793;BME280;8513;42.662;23.350;2023-03-04T08:20:30;94913.22;;;7.90;61.63
16793;BME280;8513;42.662;23.350;2023-03-04T08:22:55;94909.53;;;7.83;61.95
16793;BME280;8513;42.662;23.350;2023-03-04T08:25:21;94900.44;;;7.97;61.40
16793;BME280;8513;42.662;23.350;2023-03-04T08:27:46;94902.75;;;7.90;61.95
16793;BME280;8513;42.662;23.350;2023-03-04T08:30:12;94900.97;;;7.91;61.96
16793;BME280;8513;42.662;23.350;2023-03-04T08:32:37;94903.31;;;8.04;61.55
16793;BME280;8513;42.662;23.350;2023-03-04T08:35:03;94909.09;;;8.07;61.24
16793;BME280;8513;42.662;23.350;2023-03-04T08:37:28;94904.97;;;8.05;61.42
16793;BME280;8513;42.662;23.350;2023-03-04T08:39:54;94902.78;;;7.81;62.66
16793;BME280;8513;42.662;23.350;2023-03-04T08:42:19;94899.59;;;7.97;61.71
16793;BME280;8513;42.662;23.350;2023-03-04T08:44:45;94908.25;;;8.26;61.27
16793;BME280;8513;42.662;23.350;2023-03-04T08:47:11;94893.31;;;8.36;60.83
16793;BME280;8513;42.662;23.350;2023-03-04T08:49:36;94895.38;;;8.52;60.63
16793;BME280;8513;42.662;23.350;2023-03-04T08:52:02;94899.69;;;8.24;61.39
16793;BME280;8513;42.662;23.350;2023-03-04T08:54:27;94895.41;;;8.23;61.29
16793;BME280;8513;42.662;23.350;2023-03-04T08:56:52;94885.75;;;8.53;61.01
16793;BME280;8513;42.662;23.350;2023-03-04T08:59:18;94891.34;;;8.68;60.86
16793;BME280;8513;42.662;23.350;2023-03-04T09:01:43;94895.78;;;8.67;60.63
16793;BME280;8513;42.662;23.350;2023-03-04T09:04:09;94894.84;;;8.96;59.43
16793;BME280;8513;42.662;23.350;2023-03-04T09:06:34;94889.09;;;9.10;58.98
16793;BME280;8513;42.662;23.350;2023-03-04T09:09:00;94884.19;;;8.97;58.75
16793;BME280;8513;42.662;23.350;2023-03-04T09:11:25;94887.16;;;9.12;58.39
16793;BME280;8513;42.662;23.350;2023-03-04T09:13:50;94881.13;;;9.02;57.94
16793;BME280;8513;42.662;23.350;2023-03-04T09:16:16;94889.72;;;8.94;57.81
16793;BME280;8513;42.662;23.350;2023-03-04T09:18:42;94877.50;;;8.85;58.00
16793;BME280;8513;42.662;23.350;2023-03-04T09:21:08;94873.22;;;8.84;58.38
16793;BME280;8513;42.662;23.350;2023-03-04T09:23:34;94870.53;;;9.03;58.17
16793;BME280;8513;42.662;23.350;2023-03-04T09:26:00;94874.25;;;9.01;57.29
16793;BME280;8513;42.662;23.350;2023-03-04T09:28:26;94875.81;;;8.94;57.93
16793;BME280;8513;42.662;23.350;2023-03-04T09:30:51;94868.16;;;9.00;57.02
16793;BME280;8513;42.662;23.350;2023-03-04T09:33:17;94871.88;;;8.70;57.97
16793;BME280;8513;42.662;23.350;2023-03-04T09:35:42;94866.66;;;8.70;58.38
16793;BME280;8513;42.662;23.350;2023-03-04T09:38:08;94867.63;;;8.97;57.16
16793;BME280;8513;42.662;23.350;2023-03-04T09:43:03;94865.28;;;9.03;57.14
16793;BME280;8513;42.662;23.350;2023-03-04T09:45:56;94861.59;;;8.87;56.24
16793;BME280;8513;42.662;23.350;2023-03-04T09:48:25;94867.34;;;8.72;56.48
16793;BME280;8513;42.662;23.350;2023-03-04T09:56:01;94855.34;;;8.97;56.06
16793;BME280;8513;42.662;23.350;2023-03-04T09:58:49;94859.34;;;9.19;55.35
16793;BME280;8513;42.662;23.350;2023-03-04T10:01:25;94857.81;;;9.26;55.04
16793;BME280;8513;42.662;23.350;2023-03-04T10:04:13;94850.25;;;9.41;54.10
16793;BME280;8513;42.662;23.350;2023-03-04T10:06:41;94845.53;;;9.45;54.11
16793;BME280;8513;42.662;23.350;2023-03-04T10:09:15;94842.22;;;9.43;54.30
16793;BME280;8513;42.662;23.350;2023-03-04T10:11:48;94837.16;;;9.41;54.17
16793;BME280;8513;42.662;23.350;2023-03-04T10:19:56;94830.25;;;9.58;54.63
16793;BME280;8513;42.662;23.350;2023-03-04T10:25:14;94826.63;;;9.77;54.83
16793;BME280;8513;42.662;23.350;2023-03-04T10:27:41;94821.69;;;9.92;54.27
16793;BME280;8513;42.662;23.350;2023-03-04T10:33:14;94815.66;;;10.26;53.32
16793;BME280;8513;42.662;23.350;2023-03-04T10:35:44;94807.66;;;10.53;51.56
16793;BME280;8513;42.662;23.350;2023-03-04T10:38:11;94805.47;;;10.23;52.71
16793;BME280;8513;42.662;23.350;2023-03-04T10:40:39;94800.50;;;10.20;52.52
16793;BME280;8513;42.662;23.350;2023-03-04T10:43:05;94801.31;;;10.38;51.69
16793;BME280;8513;42.662;23.350;2023-03-04T10:45:37;94801.22;;;10.48;51.12
16793;BME280;8513;42.662;23.350;2023-03-04T10:48:04;94788.53;;;10.43;50.95
16793;BME280;8513;42.662;23.350;2023-03-04T10:50:30;94780.78;;;10.42;51.39
16793;BME280;8513;42.662;23.350;2023-03-04T10:52:57;94784.94;;;10.52;50.95
16793;BME280;8513;42.662;23.350;2023-03-04T10:55:26;94785.72;;;10.45;51.99
16793;BME280;8513;42.662;23.350;2023-03-04T10:58:15;94781.97;;;10.47;52.31
16793;BME280;8513;42.662;23.350;2023-03-04T11:00:43;94777.16;;;10.34;52.41
16793;BME280;8513;42.662;23.350;2023-03-04T11:03:29;94774.34;;;10.36;52.32
16793;BME280;8513;42.662;23.350;2023-03-04T11:08:39;94771.06;;;10.34;52.30
16793;BME280;8513;42.662;23.350;2023-03-04T11:11:21;94761.84;;;10.30;52.03
16793;BME280;8513;42.662;23.350;2023-03-04T11:13:51;94754.56;;;10.24;52.28
16793;BME280;8513;42.662;23.350;2023-03-04T11:16:28;94748.59;;;10.13;52.17
16793;BME280;8513;42.662;23.350;2023-03-04T11:19:01;94755.94;;;9.58;54.13
16793;BME280;8513;42.662;23.350;2023-03-04T11:21:30;94749.78;;;9.93;53.12
16793;BME280;8513;42.662;23.350;2023-03-04T11:24:03;94731.97;;;9.79;53.79
16793;BME280;8513;42.662;23.350;2023-03-04T11:26:42;94732.38;;;9.92;54.12
16793;BME280;8513;42.662;23.350;2023-03-04T11:29:21;94726.00;;;9.94;53.33
16793;BME280;8513;42.662;23.350;2023-03-04T11:32:06;94725.72;;;10.06;53.25
16793;BME280;8513;42.662;23.350;2023-03-04T11:34:45;94723.59;;;10.09;53.95
16793;BME280;8513;42.662;23.350;2023-03-04T11:39:54;94720.66;;;10.12;53.37
16793;BME280;8513;42.662;23.350;2023-03-04T11:42:32;94720.22;;;9.91;53.06
16793;BME280;8513;42.662;23.350;2023-03-04T11:44:59;94714.03;;;10.00;53.46
16793;BME280;8513;42.662;23.350;2023-03-04T11:50:43;94707.88;;;10.18;53.75
16793;BME280;8513;42.662;23.350;2023-03-04T12:00:51;94706.69;;;10.12;52.15
16793;BME280;8513;42.662;23.350;2023-03-04T12:11:17;94688.53;;;10.19;52.37
16793;BME280;8513;42.662;23.350;2023-03-04T12:14:10;94688.63;;;10.09;51.93
16793;BME280;8513;42.662;23.350;2023-03-04T12:22:33;94680.94;;;10.15;52.04
16793;BME280;8513;42.662;23.350;2023-03-04T12:28:02;94679.72;;;10.28;51.91
16793;BME280;8513;42.662;23.350;2023-03-04T12:36:52;94669.06;;;10.29;52.00
16793;BME280;8513;42.662;23.350;2023-03-04T12:42:27;94669.06;;;10.29;52.19
16793;BME280;8513;42.662;23.350;2023-03-04T12:45:17;94662.34;;;10.35;52.51
16793;BME280;8513;42.662;23.350;2023-03-04T12:56:04;94647.53;;;10.34;52.36
16793;BME280;8513;42.662;23.350;2023-03-04T12:58:32;94638.25;;;10.48;51.99
16793;BME280;8513;42.662;23.350;2023-03-04T13:01:20;94639.75;;;10.16;52.43
16793;BME280;8513;42.662;23.350;2023-03-04T13:04:08;94637.03;;;10.34;52.56
16793;BME280;8513;42.662;23.350;2023-03-04T13:09:18;94633.63;;;10.50;51.67
16793;BME280;8513;42.662;23.350;2023-03-04T13:24:56;94618.41;;;10.78;50.97
16793;BME280;8513;42.662;23.350;2023-03-04T13:27:45;94608.56;;;10.88;50.63
16793;BME280;8513;42.662;23.350;2023-03-04T13:35:56;94611.47;;;10.18;52.23
16793;BME280;8513;42.662;23.350;2023-03-04T13:41:20;94609.63;;;10.53;51.50
16793;BME280;8513;42.662;23.350;2023-03-04T13:43:53;94608.13;;;10.42;52.21
16793;BME280;8513;42.662;23.350;2023-03-04T13:51:24;94602.47;;;10.21;52.70
16793;BME280;8513;42.662;23.350;2023-03-04T14:04:28;94589.84;;;10.24;55.04
16793;BME280;8513;42.662;23.350;2023-03-04T14:06:56;94587.28;;;10.32;54.75
16793;BME280;8513;42.662;23.350;2023-03-04T14:09:31;94582.19;;;10.47;53.74
16793;BME280;8513;42.662;23.350;2023-03-04T14:12:02;94585.66;;;10.48;53.44
16793;BME280;8513;42.662;23.350;2023-03-04T14:14:43;94580.09;;;10.59;52.81
16793;BME280;8513;42.662;23.350;2023-03-04T14:17:18;94574.19;;;10.65;52.55
16793;BME280;8513;42.662;23.350;2023-03-04T14:19:46;94567.09;;;10.49;52.38
16793;BME280;8513;42.662;23.350;2023-03-04T14:25:14;94572.06;;;10.18;53.40
16793;BME280;8513;42.662;23.350;2023-03-04T14:27:45;94574.47;;;10.37;52.31
16793;BME280;8513;42.662;23.350;2023-03-04T14:30:23;94578.75;;;9.96;54.01
16793;BME280;8513;42.662;23.350;2023-03-04T14:32:51;94571.88;;;10.03;53.78
16793;BME280;8513;42.662;23.350;2023-03-04T14:35:19;94562.03;;;10.05;53.97
16793;BME280;8513;42.662;23.350;2023-03-04T14:38:14;94562.69;;;10.15;53.42
16793;BME280;8513;42.662;23.350;2023-03-04T14:40:44;94567.66;;;10.10;53.84
16793;BME280;8513;42.662;23.350;2023-03-04T14:43:22;94564.09;;;10.28;53.24
16793;BME280;8513;42.662;23.350;2023-03-04T14:45:50;94547.53;;;10.35;52.46
16793;BME280;8513;42.662;23.350;2023-03-04T14:48:30;94542.44;;;10.50;52.07
16793;BME280;8513;42.662;23.350;2023-03-04T14:50:57;94549.34;;;10.51;52.19
16793;BME280;8513;42.662;23.350;2023-03-04T14:53:25;94537.69;;;10.54;51.73
16793;BME280;8513;42.662;23.350;2023-03-04T14:55:58;94543.41;;;10.33;52.31
16793;BME280;8513;42.662;23.350;2023-03-04T14:58:35;94541.94;;;10.47;51.92
16793;BME280;8513;42.662;23.350;2023-03-04T15:01:20;94542.63;;;10.57;51.87
16793;BME280;8513;42.662;23.350;2023-03-04T15:04:02;94541.63;;;10.58;51.86
16793;BME280;8513;42.662;23.350;2023-03-04T15:06:38;94544.09;;;10.51;51.91
16793;BME280;8513;42.662;23.350;2023-03-04T15:09:18;94537.50;;;10.47;52.25
16793;BME280;8513;42.662;23.350;2023-03-04T15:14:49;94536.19;;;10.43;52.17
16793;BME280;8513;42.662;23.350;2023-03-04T15:17:37;94528.63;;;10.32;52.66
16793;BME280;8513;42.662;23.350;2023-03-04T15:22:56;94524.34;;;10.31;52.68